createdAt,value
2023-05-14T00:01:04.185Z,78.0693
2023-05-14T00:02:12.333Z,78.1531
2023-05-14T00:03:20.506Z,78.1675
2023-05-14T00:04:28.275Z,78.3047
2023-05-14T00:05:36.323Z,78.4101
2023-05-14T00:06:44.457Z,78.4553
2023-05-14T00:07:52.611Z,78.3962
2023-05-14T00:09:00.629Z,78.3799
2023-05-14T00:10:08.724Z,78.3555
2023-05-14T00:11:16.771Z,78.1112
2023-05-14T00:12:24.841Z,78.1319
2023-05-14T00:13:33.108Z,78.2317
2023-05-14T00:14:41.098Z,78.2682
2023-05-14T00:15:49.067Z,78.3071
2023-05-14T00:16:57.226Z,78.3121
2023-05-14T00:18:05.340Z,78.4318
2023-05-14T00:19:13.136Z,78.5057
2023-05-14T00:20:21.322Z,78.3279
2023-05-14T00:21:29.217Z,78.1416
2023-05-14T00:22:37.414Z,78.1783
2023-05-14T00:23:45.647Z,78.2109
2023-05-14T00:24:53.544Z,78.2847
2023-05-14T00:26:01.569Z,78.3456
2023-05-14T00:27:09.662Z,78.3668
2023-05-14T00:28:17.779Z,78.3673
2023-05-14T00:29:25.883Z,78.4320
2023-05-14T00:30:33.961Z,78.4562
2023-05-14T00:31:41.913Z,78.4991
2023-05-14T00:32:50.025Z,78.5667
2023-05-14T00:33:57.879Z,78.6707
2023-05-14T00:35:05.984Z,78.6755
2023-05-14T00:36:14.005Z,78.4394
2023-05-14T00:37:22.188Z,78.3875
2023-05-14T00:38:30.233Z,78.2401
2023-05-14T00:39:38.447Z,78.2401
2023-05-14T00:40:46.426Z,78.1941
2023-05-14T00:41:54.445Z,78.2424
2023-05-14T00:43:02.511Z,78.3074
2023-05-14T00:44:10.524Z,78.3482
2023-05-14T00:45:18.616Z,78.3351
2023-05-14T00:46:26.850Z,78.2859
2023-05-14T00:47:34.981Z,78.2437
2023-05-14T00:48:42.656Z,78.2339
2023-05-14T00:49:50.759Z,78.1711
2023-05-14T00:50:58.779Z,78.2169
2023-05-14T00:52:07.014Z,78.3161
2023-05-14T00:53:15.016Z,78.3614
2023-05-14T00:54:23.096Z,78.4367
2023-05-14T00:55:31.260Z,78.5245
2023-05-14T00:56:39.305Z,78.6009
2023-05-14T00:57:47.300Z,78.6372
2023-05-14T00:58:55.302Z,78.6968
2023-05-14T01:00:03.429Z,78.6647
2023-05-14T01:01:11.600Z,78.7968
2023-05-14T01:02:19.553Z,78.8478
2023-05-14T01:03:27.632Z,78.8554
2023-05-14T01:04:35.494Z,78.8421
2023-05-14T01:05:43.571Z,78.9095
2023-05-14T01:06:51.740Z,79.0498
2023-05-14T01:07:59.921Z,79.1090
2023-05-14T01:09:07.952Z,79.0577
2023-05-14T01:10:15.942Z,78.8878
2023-05-14T01:11:24.136Z,78.8157
2023-05-14T01:12:32.068Z,78.7091
2023-05-14T01:13:40.108Z,78.8048
2023-05-14T01:14:48.235Z,78.8983
2023-05-14T01:15:56.217Z,79.0070
2023-05-14T01:17:04.321Z,79.0058
2023-05-14T01:18:12.368Z,78.7823
2023-05-14T01:19:20.269Z,78.7028
2023-05-14T01:20:28.384Z,78.8025
2023-05-14T01:21:36.518Z,78.8922
2023-05-14T01:22:44.595Z,78.8869
2023-05-14T01:23:52.722Z,78.7596
2023-05-14T01:25:00.721Z,78.6436
2023-05-14T01:26:08.835Z,78.6932
2023-05-14T01:27:16.863Z,78.5465
2023-05-14T01:28:24.891Z,78.6409
2023-05-14T01:29:32.968Z,78.7488
2023-05-14T01:30:41.026Z,78.7217
2023-05-14T01:31:49.162Z,78.6822
2023-05-14T01:32:57.085Z,78.6778
2023-05-14T01:34:05.057Z,78.7358
2023-05-14T01:35:13.185Z,78.7311
2023-05-14T01:36:21.445Z,78.7349
2023-05-14T01:37:29.581Z,78.8349
2023-05-14T01:38:37.508Z,78.8972
2023-05-14T01:39:45.473Z,78.8800
2023-05-14T01:40:53.553Z,78.8021
2023-05-14T01:42:01.684Z,78.7912
2023-05-14T01:43:09.750Z,78.6806
2023-05-14T01:44:17.753Z,78.6064
2023-05-14T01:45:25.846Z,78.6671
2023-05-14T01:46:34.042Z,78.4775
2023-05-14T01:47:41.805Z,78.3348
2023-05-14T01:48:49.859Z,78.3105
2023-05-14T01:49:57.920Z,78.2140
2023-05-14T01:51:06.098Z,78.2754
2023-05-14T01:52:14.247Z,78.2191
2023-05-14T01:53:22.205Z,78.1644
2023-05-14T01:54:30.316Z,78.1052
2023-05-14T01:55:38.307Z,78.0589
2023-05-14T01:56:46.387Z,78.0890
2023-05-14T01:57:54.436Z,78.0029
2023-05-14T01:59:02.654Z,77.9195
2023-05-14T02:00:10.678Z,77.8644
2023-05-14T02:01:18.710Z,77.7646
2023-05-14T02:02:26.591Z,77.5652
2023-05-14T02:03:34.651Z,77.5328
2023-05-14T02:04:42.709Z,77.5684
2023-05-14T02:05:50.944Z,77.6849
2023-05-14T02:06:58.940Z,77.8161
2023-05-14T02:08:07.125Z,77.7557
2023-05-14T02:09:15.072Z,77.8221
2023-05-14T02:10:23.274Z,77.9794
2023-05-14T02:11:31.239Z,77.9021
2023-05-14T02:12:39.238Z,77.8947
2023-05-14T02:13:47.330Z,77.9552
2023-05-14T02:14:55.425Z,78.0499
2023-05-14T02:16:03.658Z,77.9795
2023-05-14T02:17:11.400Z,77.8671
2023-05-14T02:18:19.401Z,77.8787
2023-05-14T02:19:27.514Z,78.1245
2023-05-14T02:20:35.700Z,78.1792
2023-05-14T02:21:43.731Z,78.1646
2023-05-14T02:22:51.840Z,77.9453
2023-05-14T02:23:59.984Z,77.8473
2023-05-14T02:25:07.922Z,77.7534
2023-05-14T02:26:15.995Z,77.8646
2023-05-14T02:27:24.062Z,77.8200
2023-05-14T02:28:32.155Z,77.7372
2023-05-14T02:29:40.232Z,77.7898
2023-05-14T02:30:48.235Z,77.8361
2023-05-14T02:31:56.213Z,77.7334
2023-05-14T02:33:04.341Z,77.6827
2023-05-14T02:34:12.361Z,77.5791
2023-05-14T02:35:20.465Z,77.6177
2023-05-14T02:36:28.515Z,77.5942
2023-05-14T02:37:36.613Z,77.6676
2023-05-14T02:38:44.674Z,77.6855
2023-05-14T02:39:52.876Z,77.5467
2023-05-14T02:41:00.763Z,77.6920
2023-05-14T02:42:08.860Z,77.8474
2023-05-14T02:43:16.893Z,77.8794
2023-05-14T02:44:24.948Z,78.0628
2023-05-14T02:45:33.038Z,78.1478
2023-05-14T02:46:40.958Z,78.2560
2023-05-14T02:47:49.036Z,78.3641
2023-05-14T02:48:57.024Z,78.4013
2023-05-14T02:50:05.217Z,78.3424
2023-05-14T02:51:13.388Z,78.3577
2023-05-14T02:52:21.370Z,78.3623
2023-05-14T02:53:29.410Z,78.4549
2023-05-14T02:54:37.513Z,78.4015
2023-05-14T02:55:45.661Z,78.5213
2023-05-14T02:56:53.707Z,78.5448
2023-05-14T02:58:01.639Z,78.4907
2023-05-14T02:59:09.676Z,78.5785
2023-05-14T03:00:17.640Z,78.5067
2023-05-14T03:01:25.779Z,78.2190
2023-05-14T03:02:33.907Z,78.1861
2023-05-14T03:03:41.957Z,78.3396
2023-05-14T03:04:50.216Z,78.3808
2023-05-14T03:05:58.071Z,78.3713
2023-05-14T03:07:06.136Z,78.3952
2023-05-14T03:08:14.229Z,78.3218
2023-05-14T03:09:22.308Z,78.3551
2023-05-14T03:10:30.292Z,78.4976
2023-05-14T03:11:38.485Z,78.5985
2023-05-14T03:12:46.487Z,78.5840
2023-05-14T03:13:54.521Z,78.5240
2023-05-14T03:15:02.415Z,78.4196
2023-05-14T03:16:10.460Z,78.4086
2023-05-14T03:17:18.543Z,78.3798
2023-05-14T03:18:26.751Z,78.3912
2023-05-14T03:19:34.841Z,78.4127
2023-05-14T03:20:42.691Z,78.4586
2023-05-14T03:21:50.849Z,78.4105
2023-05-14T03:22:58.954Z,78.4835
2023-05-14T03:24:06.998Z,78.6484
2023-05-14T03:25:15.083Z,78.6510
2023-05-14T03:26:23.105Z,78.5270
2023-05-14T03:27:31.120Z,78.5163
2023-05-14T03:28:39.191Z,78.5455
2023-05-14T03:29:47.110Z,78.4906
2023-05-14T03:30:55.258Z,78.5327
2023-05-14T03:32:03.259Z,78.4575
2023-05-14T03:33:11.671Z,78.3244
2023-05-14T03:34:19.473Z,78.2424
2023-05-14T03:35:27.551Z,78.2852
2023-05-14T03:36:35.721Z,78.2758
2023-05-14T03:37:43.663Z,78.4348
2023-05-14T03:38:51.731Z,78.4332
2023-05-14T03:39:59.741Z,78.5954
2023-05-14T03:41:07.814Z,78.6733
2023-05-14T03:42:15.951Z,78.6174
2023-05-14T03:43:23.921Z,78.5876
2023-05-14T03:44:31.861Z,78.5688
2023-05-14T03:45:39.895Z,78.7089
2023-05-14T03:46:47.975Z,78.8233
2023-05-14T03:47:56.403Z,78.9219
2023-05-14T03:49:04.360Z,79.0849
2023-05-14T03:50:12.293Z,79.1023
2023-05-14T03:51:20.399Z,79.0517
2023-05-14T03:52:28.637Z,79.1029
2023-05-14T03:53:36.481Z,79.1949
2023-05-14T03:54:44.538Z,79.1693
2023-05-14T03:55:52.545Z,79.1381
2023-05-14T03:57:00.854Z,79.2500
2023-05-14T03:58:08.729Z,79.2797
2023-05-14T03:59:16.655Z,79.2985
2023-05-14T04:00:24.885Z,79.3628
2023-05-14T04:01:32.721Z,79.4040
2023-05-14T04:02:41.101Z,79.4132
2023-05-14T04:03:49.160Z,79.3423
2023-05-14T04:04:57.089Z,79.3416
2023-05-14T04:06:05.294Z,79.3495
2023-05-14T04:07:13.110Z,79.3169
2023-05-14T04:08:21.151Z,79.2811
2023-05-14T04:09:29.232Z,79.2790
2023-05-14T04:10:37.309Z,79.1616
2023-05-14T04:11:45.475Z,79.0148
2023-05-14T04:12:53.497Z,79.0644
2023-05-14T04:14:01.425Z,79.1943
2023-05-14T04:15:09.499Z,79.2384
2023-05-14T04:16:17.657Z,79.1738
2023-05-14T04:17:25.904Z,79.1708
2023-05-14T04:18:33.985Z,79.1702
2023-05-14T04:19:41.857Z,79.1433
2023-05-14T04:20:49.915Z,79.0520
2023-05-14T04:21:57.881Z,79.0279
2023-05-14T04:23:06.022Z,78.8420
2023-05-14T04:24:14.138Z,78.8802
2023-05-14T04:25:22.270Z,78.9464
2023-05-14T04:26:30.194Z,78.9543
2023-05-14T04:27:38.333Z,78.7565
2023-05-14T04:28:46.208Z,78.6494
2023-05-14T04:29:54.248Z,78.5420
2023-05-14T04:31:02.338Z,78.6223
2023-05-14T04:32:10.498Z,78.5395
2023-05-14T04:33:18.596Z,78.4602
2023-05-14T04:34:26.834Z,78.4950
2023-05-14T04:35:34.672Z,78.4302
2023-05-14T04:36:42.830Z,78.3596
2023-05-14T04:37:50.769Z,78.3537
2023-05-14T04:38:58.966Z,78.3793
2023-05-14T04:40:06.947Z,78.4052
2023-05-14T04:41:14.967Z,78.5020
2023-05-14T04:42:23.119Z,78.4003
2023-05-14T04:43:30.961Z,78.4018
2023-05-14T04:44:39.045Z,78.4774
2023-05-14T04:45:47.067Z,78.4861
2023-05-14T04:46:55.290Z,78.4919
2023-05-14T04:48:03.343Z,78.5034
2023-05-14T04:49:11.445Z,78.5499
2023-05-14T04:50:19.582Z,78.6392
2023-05-14T04:51:27.494Z,78.5550
2023-05-14T04:52:35.558Z,78.2828
2023-05-14T04:53:43.622Z,78.2216
2023-05-14T04:54:51.695Z,78.2613
2023-05-14T04:55:59.803Z,78.2237
2023-05-14T04:57:07.783Z,78.0303
2023-05-14T04:58:15.722Z,77.9566
2023-05-14T04:59:23.772Z,77.9438
2023-05-14T05:00:31.853Z,77.8120
2023-05-14T05:01:40.160Z,77.7417
2023-05-14T05:02:48.106Z,77.5818
2023-05-14T05:03:56.261Z,77.5890
2023-05-14T05:05:04.277Z,77.5821
2023-05-14T05:06:12.546Z,77.2802
2023-05-14T05:07:20.447Z,77.3482
2023-05-14T05:08:28.375Z,77.3511
2023-05-14T05:09:36.449Z,77.3813
2023-05-14T05:10:44.569Z,77.2995
2023-05-14T05:11:52.556Z,77.1631
2023-05-14T05:13:00.576Z,77.0333
2023-05-14T05:14:08.569Z,77.2060
2023-05-14T05:15:16.611Z,77.4608
2023-05-14T05:16:24.857Z,77.7738
2023-05-14T05:17:32.925Z,77.8714
2023-05-14T05:18:41.092Z,77.7606
2023-05-14T05:19:48.979Z,77.5671
2023-05-14T05:20:57.140Z,77.3778
2023-05-14T05:22:05.257Z,77.3384
2023-05-14T05:23:13.048Z,77.3879
2023-05-14T05:24:21.308Z,77.4455
2023-05-14T05:25:29.505Z,77.3833
2023-05-14T05:26:37.332Z,77.2610
2023-05-14T05:27:45.313Z,77.3862
2023-05-14T05:28:53.292Z,77.4306
2023-05-14T05:30:01.439Z,77.4055
2023-05-14T05:31:09.558Z,77.4704
2023-05-14T05:32:17.633Z,77.2497
2023-05-14T05:33:25.685Z,77.2290
2023-05-14T05:34:33.720Z,77.1542
2023-05-14T05:35:41.940Z,77.0393
2023-05-14T05:36:49.864Z,76.6358
2023-05-14T05:38:00.528Z,76.6089
2023-05-14T05:39:10.932Z,77.1041
2023-05-14T05:40:18.948Z,77.4912
2023-05-14T05:41:26.890Z,77.4374
2023-05-14T05:42:34.874Z,77.2160
2023-05-14T05:43:42.944Z,77.2573
2023-05-14T05:44:51.134Z,77.1927
2023-05-14T05:45:59.158Z,77.0075
2023-05-14T05:47:07.451Z,76.9601
2023-05-14T05:48:15.312Z,76.7298
2023-05-14T05:49:23.477Z,76.7139
2023-05-14T05:50:31.389Z,76.6555
2023-05-14T05:51:39.471Z,76.4346
2023-05-14T05:52:47.573Z,76.6349
2023-05-14T05:53:55.604Z,76.6175
2023-05-14T05:55:03.790Z,76.5376
2023-05-14T05:56:11.566Z,76.5341
2023-05-14T05:57:19.638Z,76.6527
2023-05-14T05:58:27.768Z,76.6571
2023-05-14T05:59:35.871Z,76.6684
2023-05-14T06:00:44.022Z,76.5424
2023-05-14T06:01:52.086Z,76.3074
2023-05-14T06:03:00.312Z,76.1167
2023-05-14T06:04:08.170Z,75.9516
2023-05-14T06:05:16.303Z,75.8673
2023-05-14T06:06:24.224Z,75.7981
2023-05-14T06:07:32.299Z,75.8158
2023-05-14T06:08:40.396Z,75.9742
2023-05-14T06:09:48.456Z,76.0555
2023-05-14T06:10:56.362Z,76.1162
2023-05-14T06:12:04.378Z,76.1349
2023-05-14T06:13:12.432Z,76.2045
2023-05-14T06:14:20.626Z,76.4604
2023-05-14T06:15:28.801Z,76.4860
2023-05-14T06:16:36.766Z,76.6538
2023-05-14T06:17:44.836Z,76.7746
2023-05-14T06:18:53.047Z,76.9618
2023-05-14T06:20:00.925Z,76.8868
2023-05-14T06:21:09.013Z,76.6995
2023-05-14T06:22:17.036Z,76.6694
2023-05-14T06:23:25.091Z,76.5197
2023-05-14T06:24:33.045Z,76.3180
2023-05-14T06:25:41.083Z,76.4305
2023-05-14T06:26:49.183Z,76.5395
2023-05-14T06:27:57.176Z,76.6136
2023-05-14T06:29:05.386Z,76.7560
2023-05-14T06:30:13.401Z,76.6909
2023-05-14T06:31:21.544Z,76.4543
2023-05-14T06:32:29.609Z,76.4142
2023-05-14T06:33:37.662Z,76.4198
2023-05-14T06:34:45.784Z,76.4911
2023-05-14T06:35:53.937Z,76.4833
2023-05-14T06:37:01.830Z,76.6272
2023-05-14T06:38:10.000Z,76.9039
2023-05-14T06:39:17.908Z,77.0296
2023-05-14T06:40:25.966Z,77.0398
2023-05-14T06:41:33.874Z,76.9534
2023-05-14T06:42:41.949Z,76.8613
2023-05-14T06:43:50.164Z,76.9885
2023-05-14T06:44:58.230Z,77.1097
2023-05-14T06:46:06.270Z,77.2669
2023-05-14T06:47:14.356Z,77.2721
2023-05-14T06:48:22.428Z,77.4163
2023-05-14T06:49:30.467Z,77.6482
2023-05-14T06:50:38.619Z,77.6727
2023-05-14T06:51:46.565Z,77.2914
2023-05-14T06:52:54.609Z,77.2033
2023-05-14T06:54:02.694Z,77.0815
2023-05-14T06:55:10.632Z,77.1027
2023-05-14T06:56:18.655Z,77.2389
2023-05-14T06:57:26.721Z,77.5024
2023-05-14T06:58:34.959Z,77.2999
2023-05-14T06:59:42.982Z,77.2444
2023-05-14T07:00:51.071Z,77.2663
2023-05-14T07:01:59.161Z,77.3151
2023-05-14T07:03:07.213Z,77.3597
2023-05-14T07:04:15.267Z,77.2963
2023-05-14T07:05:23.220Z,77.3096
2023-05-14T07:06:31.392Z,77.4296
2023-05-14T07:07:39.517Z,77.5045
2023-05-14T07:08:47.389Z,77.7063
2023-05-14T07:09:55.380Z,77.8718
2023-05-14T07:11:03.445Z,77.9567
2023-05-14T07:12:11.563Z,78.1441
2023-05-14T07:13:19.688Z,78.2233
2023-05-14T07:14:27.692Z,78.2402
2023-05-14T07:15:35.769Z,78.4052
2023-05-14T07:16:43.882Z,78.4804
2023-05-14T07:17:51.994Z,78.4143
2023-05-14T07:18:59.976Z,78.2496
2023-05-14T07:20:08.046Z,78.2164
2023-05-14T07:21:16.066Z,78.1247
2023-05-14T07:22:24.131Z,78.1111
2023-05-14T07:23:32.196Z,78.2449
2023-05-14T07:24:40.151Z,78.2124
2023-05-14T07:25:48.206Z,78.1987
2023-05-14T07:26:56.285Z,78.1132
2023-05-14T07:28:04.429Z,77.9411
2023-05-14T07:29:12.522Z,77.6396
2023-05-14T07:30:20.541Z,77.5248
2023-05-14T07:31:28.673Z,77.5516
2023-05-14T07:32:36.657Z,77.5198
2023-05-14T07:33:44.666Z,77.4959
2023-05-14T07:34:52.858Z,77.4281
2023-05-14T07:36:00.804Z,77.2682
2023-05-14T07:37:08.883Z,77.1439
2023-05-14T07:38:17.020Z,76.9058
2023-05-14T07:39:24.955Z,76.5127
2023-05-14T07:40:33.121Z,76.4963
2023-05-14T07:41:41.027Z,76.4505
2023-05-14T07:42:49.200Z,76.2851
2023-05-14T07:43:57.618Z,76.0704
2023-05-14T07:45:05.381Z,76.0570
2023-05-14T07:46:13.440Z,76.0911
2023-05-14T07:47:21.443Z,75.8183
2023-05-14T07:48:29.520Z,75.7717
2023-05-14T07:49:37.554Z,75.8113
2023-05-14T07:50:45.630Z,75.6713
2023-05-14T07:51:53.709Z,75.5023
2023-05-14T07:53:01.770Z,75.4550
2023-05-14T07:54:09.680Z,75.4388
2023-05-14T07:55:17.728Z,75.2370
2023-05-14T07:56:25.788Z,75.0837
2023-05-14T07:57:34.178Z,74.9130
2023-05-14T07:58:41.973Z,74.6896
2023-05-14T07:59:50.154Z,74.1887
2023-05-14T08:00:58.099Z,74.0430
2023-05-14T08:02:06.185Z,74.0857
2023-05-14T08:03:14.415Z,73.9564
2023-05-14T08:04:22.414Z,73.6401
2023-05-14T08:05:30.337Z,73.3569
2023-05-14T08:06:38.498Z,73.0538
2023-05-14T08:07:46.501Z,73.0619
2023-05-14T08:08:54.452Z,73.0597
2023-05-14T08:10:02.478Z,73.0671
2023-05-14T08:11:10.610Z,73.1290
2023-05-14T08:12:18.702Z,73.0574
2023-05-14T08:13:26.917Z,73.0522
2023-05-14T08:14:34.863Z,72.8853
2023-05-14T08:15:42.968Z,72.6046
2023-05-14T08:16:51.040Z,72.6794
2023-05-14T08:17:59.017Z,72.6487
2023-05-14T08:19:07.107Z,72.6345
2023-05-14T08:20:15.343Z,72.4401
2023-05-14T08:21:23.257Z,72.3450
2023-05-14T08:22:31.341Z,72.3592
2023-05-14T08:23:39.260Z,72.2886
2023-05-14T08:24:47.314Z,72.3885
2023-05-14T08:25:55.406Z,72.0243
2023-05-14T08:27:03.412Z,72.1603
2023-05-14T08:28:11.623Z,72.3817
2023-05-14T08:29:19.656Z,72.4030
2023-05-14T08:30:27.891Z,72.4940
2023-05-14T08:31:35.821Z,72.4760
2023-05-14T08:32:43.868Z,72.5942
2023-05-14T08:33:51.890Z,72.4499
2023-05-14T08:34:59.957Z,72.5522
2023-05-14T08:36:08.072Z,72.4680
2023-05-14T08:37:16.139Z,72.4022
2023-05-14T08:38:23.984Z,72.1403
2023-05-14T08:39:32.080Z,71.9152
2023-05-14T08:40:40.107Z,71.9932
2023-05-14T08:41:48.298Z,71.9176
2023-05-14T08:42:56.456Z,71.6623
2023-05-14T08:44:04.413Z,71.3723
2023-05-14T08:45:12.476Z,71.2174
2023-05-14T08:46:20.550Z,71.0215
2023-05-14T08:47:28.626Z,71.0334
2023-05-14T08:48:36.728Z,71.2783
2023-05-14T08:49:44.705Z,71.4360
2023-05-14T08:50:52.733Z,71.3050
2023-05-14T08:52:00.813Z,70.9833
2023-05-14T08:53:08.753Z,70.5161
2023-05-14T08:54:16.846Z,70.2782
2023-05-14T08:55:24.836Z,69.9391
2023-05-14T08:56:33.070Z,69.6801
2023-05-14T08:57:41.106Z,69.6932
2023-05-14T08:58:49.132Z,69.6491
2023-05-14T08:59:57.272Z,69.3433
2023-05-14T09:01:05.224Z,69.2587
2023-05-14T09:02:13.347Z,69.1531
2023-05-14T09:03:21.423Z,69.0425
2023-05-14T09:04:29.414Z,69.0918
2023-05-14T09:05:37.553Z,69.0861
2023-05-14T09:06:45.497Z,68.5788
2023-05-14T09:07:53.480Z,68.1420
2023-05-14T09:09:01.547Z,68.1711
2023-05-14T09:10:09.564Z,68.1374
2023-05-14T09:11:17.980Z,68.2644
2023-05-14T09:12:25.766Z,68.4220
2023-05-14T09:13:33.827Z,68.5018
2023-05-14T09:14:41.956Z,68.5280
2023-05-14T09:15:49.997Z,68.6362
2023-05-14T09:16:58.061Z,68.6072
2023-05-14T09:18:06.303Z,68.7176
2023-05-14T09:19:14.198Z,68.7570
2023-05-14T09:20:22.718Z,68.5212
2023-05-14T09:21:32.178Z,68.5968
2023-05-14T09:22:43.104Z,68.2740
2023-05-14T09:23:51.274Z,68.1817
2023-05-14T09:24:59.276Z,67.8752
2023-05-14T09:26:07.534Z,68.0478
2023-05-14T09:27:15.410Z,67.8799
2023-05-14T09:28:23.420Z,67.0923
2023-05-14T09:29:31.527Z,67.0714
2023-05-14T09:30:39.618Z,66.9479
2023-05-14T09:31:47.694Z,67.2377
2023-05-14T09:32:55.813Z,67.5025
2023-05-14T09:34:03.826Z,67.3478
2023-05-14T09:35:11.757Z,67.2364
2023-05-14T09:36:19.824Z,66.9979
2023-05-14T09:37:27.855Z,67.0968
2023-05-14T09:38:35.980Z,66.8703
2023-05-14T09:39:44.094Z,67.1473
2023-05-14T09:40:52.189Z,67.1990
2023-05-14T09:42:00.200Z,67.3951
2023-05-14T09:43:08.264Z,67.6680
2023-05-14T09:44:16.343Z,67.2874
2023-05-14T09:45:24.451Z,66.9774
2023-05-14T09:46:32.415Z,66.9040
2023-05-14T09:47:40.564Z,66.9267
2023-05-14T09:48:48.506Z,66.6708
2023-05-14T09:49:56.517Z,66.2763
2023-05-14T09:51:04.910Z,65.9565
2023-05-14T09:52:12.638Z,65.3280
2023-05-14T09:53:20.846Z,65.1595
2023-05-14T09:54:28.877Z,65.0035
2023-05-14T09:55:36.911Z,65.2132
2023-05-14T09:56:45.007Z,65.0262
2023-05-14T09:57:53.040Z,64.8332
2023-05-14T09:59:01.132Z,65.2673
2023-05-14T10:00:09.056Z,65.5453
2023-05-14T10:01:17.254Z,65.9819
2023-05-14T10:02:25.553Z,66.2523
2023-05-14T10:03:33.253Z,66.2690
2023-05-14T10:04:41.310Z,66.0865
2023-05-14T10:05:49.367Z,65.7110
2023-05-14T10:06:57.559Z,66.0852
2023-05-14T10:08:05.601Z,66.4679
2023-05-14T10:09:13.673Z,66.7956
2023-05-14T10:10:21.959Z,66.8598
2023-05-14T10:11:29.804Z,66.9034
2023-05-14T10:12:37.857Z,66.9883
2023-05-14T10:13:46.082Z,67.0538
2023-05-14T10:14:53.977Z,67.2900
2023-05-14T10:16:02.045Z,67.3316
2023-05-14T10:17:10.246Z,67.4400
2023-05-14T10:18:18.149Z,67.5324
2023-05-14T10:19:26.225Z,67.7778
2023-05-14T10:20:34.103Z,67.4041
2023-05-14T10:21:42.315Z,67.1592
2023-05-14T10:22:50.360Z,67.0623
2023-05-14T10:23:58.493Z,66.9975
2023-05-14T10:25:06.526Z,66.5031
2023-05-14T10:26:14.560Z,66.3588
2023-05-14T10:27:22.645Z,66.5651
2023-05-14T10:28:30.687Z,66.0636
2023-05-14T10:29:38.826Z,65.7158
2023-05-14T10:30:46.850Z,66.1971
2023-05-14T10:31:54.820Z,66.2984
2023-05-14T10:33:02.792Z,66.2365
2023-05-14T10:34:10.839Z,66.2067
2023-05-14T10:35:18.914Z,66.1573
2023-05-14T10:36:27.104Z,65.8662
2023-05-14T10:37:35.150Z,65.8666
2023-05-14T10:38:43.331Z,66.1862
2023-05-14T10:39:51.259Z,66.3095
2023-05-14T10:40:59.302Z,65.8975
2023-05-14T10:42:07.496Z,65.3741
2023-05-14T10:43:15.420Z,65.0601
2023-05-14T10:44:23.688Z,65.2613
2023-05-14T10:45:31.569Z,65.0798
2023-05-14T10:46:39.718Z,65.0636
2023-05-14T10:47:47.619Z,64.4321
2023-05-14T10:48:55.582Z,64.5076
2023-05-14T10:50:03.656Z,64.6015
2023-05-14T10:51:11.938Z,64.1915
2023-05-14T10:52:19.912Z,64.2982
2023-05-14T10:53:28.039Z,63.9496
2023-05-14T10:54:36.164Z,64.1265
2023-05-14T10:55:44.067Z,64.2626
2023-05-14T10:56:52.136Z,63.0106
2023-05-14T10:58:00.223Z,62.4871
2023-05-14T10:59:08.276Z,62.4201
2023-05-14T11:00:16.317Z,61.9839
2023-05-14T11:01:24.433Z,61.0519
2023-05-14T11:02:32.334Z,59.1537
2023-05-14T11:03:40.395Z,57.6271
2023-05-14T11:04:48.473Z,57.0303
2023-05-14T11:05:56.826Z,57.0753
2023-05-14T11:07:04.701Z,56.2987
2023-05-14T11:08:12.763Z,55.0296
2023-05-14T11:09:20.796Z,54.2482
2023-05-14T11:10:28.987Z,54.0128
2023-05-14T11:11:36.928Z,54.3061
2023-05-14T11:12:44.977Z,54.7037
2023-05-14T11:13:52.989Z,54.7495
2023-05-14T11:15:01.083Z,54.0705
2023-05-14T11:16:21.977Z,54.5851
2023-05-14T11:17:21.941Z,54.3618
2023-05-14T11:18:30.067Z,53.9795
2023-05-14T11:19:38.066Z,53.9023
2023-05-14T11:20:46.240Z,54.1611
2023-05-14T11:21:54.361Z,54.5957
2023-05-14T11:23:02.373Z,55.0563
2023-05-14T11:24:10.416Z,55.8274
2023-05-14T11:25:18.455Z,56.7832
2023-05-14T11:26:26.685Z,57.6100
2023-05-14T11:27:34.666Z,58.5023
2023-05-14T11:28:42.629Z,59.4420
2023-05-14T11:29:50.802Z,59.9756
2023-05-14T11:30:58.763Z,60.1650
2023-05-14T11:32:06.759Z,60.8759
2023-05-14T11:33:14.880Z,61.4221
2023-05-14T11:34:22.850Z,61.6897
2023-05-14T11:35:31.024Z,62.0619
2023-05-14T11:36:39.045Z,62.0842
2023-05-14T11:37:47.098Z,62.6619
2023-05-14T11:38:55.223Z,63.1840
2023-05-14T11:40:03.345Z,63.6550
2023-05-14T11:41:11.288Z,63.7906
2023-05-14T11:42:19.532Z,64.3805
2023-05-14T11:43:27.439Z,64.7699
2023-05-14T11:44:35.498Z,65.0985
2023-05-14T11:45:43.536Z,65.3777
2023-05-14T11:46:51.429Z,65.4275
2023-05-14T11:47:59.508Z,65.3109
2023-05-14T11:49:07.553Z,65.3695
2023-05-14T11:50:15.857Z,65.6139
2023-05-14T11:51:23.807Z,65.4082
2023-05-14T11:52:31.854Z,65.6046
2023-05-14T11:53:39.894Z,65.4448
2023-05-14T11:54:47.980Z,65.1336
2023-05-14T11:55:56.135Z,64.7100
2023-05-14T11:57:04.095Z,64.4835
2023-05-14T11:58:12.184Z,64.9772
2023-05-14T11:59:20.363Z,64.7980
2023-05-14T12:00:28.273Z,64.7374
2023-05-14T12:01:36.235Z,64.9945
2023-05-14T12:02:44.302Z,64.5987
2023-05-14T12:03:52.478Z,64.3633
2023-05-14T12:05:00.553Z,64.1764
2023-05-14T12:06:08.589Z,63.8279
2023-05-14T12:07:16.731Z,63.7032
2023-05-14T12:08:24.655Z,63.7850
2023-05-14T12:09:32.696Z,64.2229
2023-05-14T12:10:40.770Z,64.0213
2023-05-14T12:11:48.806Z,64.1826
2023-05-14T12:12:56.916Z,64.5990
2023-05-14T12:14:05.164Z,64.8748
2023-05-14T12:15:13.015Z,65.1865
2023-05-14T12:16:21.005Z,65.2404
2023-05-14T12:17:29.083Z,65.6844
2023-05-14T12:18:37.241Z,65.9993
2023-05-14T12:19:45.275Z,66.3330
2023-05-14T12:20:53.297Z,66.6136
2023-05-14T12:22:01.388Z,67.0835
2023-05-14T12:23:09.602Z,67.3392
2023-05-14T12:24:17.684Z,67.4936
2023-05-14T12:25:25.634Z,67.5327
2023-05-14T12:26:33.799Z,67.4677
2023-05-14T12:27:41.721Z,67.9067
2023-05-14T12:28:49.768Z,68.3549
2023-05-14T12:30:01.985Z,68.4984
2023-05-14T12:31:10.706Z,68.7943
2023-05-14T12:32:18.765Z,69.0249
2023-05-14T12:33:26.816Z,69.1144
2023-05-14T12:34:37.227Z,69.5039
2023-05-14T12:35:47.932Z,69.5826
2023-05-14T12:36:55.957Z,69.7326
2023-05-14T12:38:04.046Z,69.8052
2023-05-14T12:39:12.070Z,70.1297
2023-05-14T12:40:20.273Z,70.5632
2023-05-14T12:41:28.445Z,71.0843
2023-05-14T12:42:36.298Z,71.4214
2023-05-14T12:43:44.421Z,71.8556
2023-05-14T12:44:52.296Z,72.1828
2023-05-14T12:46:00.329Z,72.3929
2023-05-14T12:47:08.521Z,72.5718
2023-05-14T12:48:16.590Z,72.7800
2023-05-14T12:49:24.642Z,72.9176
2023-05-14T12:50:32.805Z,73.0253
2023-05-14T12:51:40.855Z,73.1136
2023-05-14T12:52:48.857Z,73.1113
2023-05-14T12:53:56.968Z,73.2475
2023-05-14T12:55:05.058Z,73.3580
2023-05-14T12:56:13.042Z,73.4428
2023-05-14T12:57:21.105Z,73.5767
2023-05-14T12:58:29.370Z,73.6080
2023-05-14T12:59:37.122Z,73.5370
2023-05-14T13:00:45.187Z,73.1172
2023-05-14T13:01:53.220Z,72.7429
2023-05-14T13:03:01.444Z,72.7421
2023-05-14T13:04:09.539Z,72.7759
2023-05-14T13:05:17.585Z,72.9133
2023-05-14T13:06:25.706Z,73.0691
2023-05-14T13:07:33.649Z,73.1369
2023-05-14T13:08:42.739Z,73.1229
2023-05-14T13:09:49.902Z,73.3527
2023-05-14T13:10:57.839Z,73.6241
2023-05-14T13:12:05.898Z,73.5703
2023-05-14T13:13:13.988Z,73.4158
2023-05-14T13:14:21.905Z,73.3277
2023-05-14T13:15:30.012Z,73.4038
2023-05-14T13:16:38.062Z,73.3261
2023-05-14T13:17:46.252Z,73.2806
2023-05-14T13:18:54.302Z,73.2532
2023-05-14T13:20:02.318Z,73.2553
2023-05-14T13:21:10.523Z,73.2450
2023-05-14T13:22:18.579Z,73.1438
2023-05-14T13:23:26.541Z,73.0292
2023-05-14T13:24:34.599Z,73.0283
2023-05-14T13:25:42.663Z,73.0478
2023-05-14T13:26:50.745Z,73.1869
2023-05-14T13:27:58.785Z,73.3422
2023-05-14T13:29:06.712Z,73.1241
2023-05-14T13:30:14.805Z,72.7816
2023-05-14T13:31:22.962Z,72.6069
2023-05-14T13:32:31.032Z,72.0158
2023-05-14T13:33:39.085Z,71.7516
2023-05-14T13:34:47.126Z,71.5881
2023-05-14T13:35:55.238Z,71.3692
2023-05-14T13:37:03.285Z,70.9489
2023-05-14T13:38:11.562Z,70.8092
2023-05-14T13:39:19.450Z,70.5476
2023-05-14T13:40:27.459Z,70.2029
2023-05-14T13:41:35.541Z,70.0077
2023-05-14T13:42:43.618Z,70.0433
2023-05-14T13:43:51.567Z,69.8161